Date,TemperatureHighF,TemperatureAvgF,TemperatureLowF,DewpointHighF,DewpointAvgF,DewpointLowF,HumidityHigh,HumidityAvg,HumidityLow,PressureMaxIn,PressureMinIn,WindSpeedMaxMPH,WindSpeedAvgMPH,GustSpeedMaxMPH,PrecipitationSumIn
2012-11-17,52,51,49,38,36,35,60,57,53,30.20,30.17,25,14,25,0.08
2012-11-18,62,52,44,36,34,31,60,51,38,30.18,30.04,25,13,25,0.00
2012-11-19,66,53,42,41,37,33,77,56,39,30.07,29.99,17,6,17,0.00
2012-11-20,68,47,33,40,34,29,88,65,33,30.15,30.02,10,4,10,0.00
2012-11-21,64,54,43,44,38,32,70,56,41,30.02,29.67,27,11,27,0.00
2012-11-22,58,45,24,44,36,18,89,71,51,29.97,29.60,30,13,30,0.00
2012-11-23,32,22,15,19,14,9,82,71,53,30.34,29.96,24,11,24,0.00
2012-11-24,29,21,10,19,13,5,86,70,58,30.32,29.76,17,7,17,0.00
2012-11-25,33,29,23,23,21,10,78,71,55,30.13,29.77,20,6,20,0.00
2012-11-26,32,20,11,10,8,5,78,60,36,30.38,30.13,16,5,16,0.00
2012-11-27,40,26,14,26,17,7,81,69,56,30.30,30.04,21,8,21,0.00
2012-11-28,40,31,25,24,22,19,82,70,53,30.30,30.05,15,6,15,0.00
2012-11-29,48,35,23,28,24,18,83,67,43,30.07,30.00,12,4,12,0.00
2012-11-30,36,33,31,31,28,25,90,81,76,30.14,30.02,19,7,19,0.00
2012-12-1,47,39,34,43,36,31,93,88,81,30.03,29.68,24,9,24,0.00
2012-12-2,44,35,27,38,33,26,95,91,77,29.97,29.75,14,4,14,0.00
2012-12-3,58,47,38,52,41,28,95,80,53,29.90,29.52,24,6,24,0.00
2012-12-4,43,34,22,29,19,11,73,56,40,30.36,29.90,12,2,12,0.00
2012-12-5,41,30,19,27,16,10,74,58,45,30.37,29.82,27,12,27,0.00
2012-12-6,50,42,28,37,29,19,81,63,46,29.97,29.74,24,9,24,0.00
2012-12-7,32,27,22,26,22,16,88,80,68,30.02,29.97,11,3,11,0.00
2012-12-8,41,30,25,28,24,22,89,79,59,30.02,29.94,12,2,12,0.03
2012-12-9,32,30,19,30,27,16,93,91,79,29.97,29.77,16,6,18,0.00
2012-12-10,26,12,1,22,7,-5,90,80,56,29.92,29.81,17,6,17,0.00
2012-12-11,21,14,7,14,9,2,88,83,74,29.97,29.76,12,5,12,0.00
2012-12-12,46,30,10,29,22,7,89,71,50,29.97,29.79,19,7,19,0.00
2012-12-13,54,34,22,30,22,17,82,61,38,30.09,29.87,15,4,15,0.00
2012-12-14,45,30,17,31,22,13,90,73,49,30.09,29.75,16,5,16,0.00
2012-12-15,38,36,33,35,33,31,94,89,74,29.75,29.47,20,4,20,0.00
2012-12-16,34,26,20,32,23,16,93,89,85,29.79,29.52,16,6,16,0.00
2012-12-17,27,23,21,22,20,18,89,85,79,29.78,29.66,7,2,7,0.00
2012-12-18,30,26,23,26,22,20,92,87,79,29.79,29.60,10,3,10,0.00
2012-12-19,43,29,24,30,25,20,92,83,58,29.99,29.79,17,5,17,0.00
2012-12-20,28,22,13,21,17,8,86,80,65,30.03,29.81,25,11,25,0.00
2012-12-21,35,16,8,14,7,3,82,70,38,30.22,30.02,14,4,14,0.00
2012-12-22,45,22,9,22,11,4,83,66,35,30.15,29.92,13,3,13,0.00
2012-12-23,32,18,11,15,10,6,84,70,46,30.10,29.96,15,6,15,0.00
2012-12-24,30,17,6,13,7,-1,81,65,44,30.24,29.96,15,6,15,0.00
2012-12-25,27,10,0,7,-1,-6,78,63,39,30.44,30.24,10,3,10,0.00
2012-12-26,37,16,4,12,3,-3,75,60,33,30.36,30.18,8,3,8,0.00
2012-12-27,22,16,9,16,10,1,85,75,64,30.21,30.10,6,2,6,0.00
2012-12-28,36,21,14,24,15,10,87,79,60,30.10,29.96,8,2,8,0.00
2012-12-29,19,10,2,13,5,-2,88,81,68,30.14,29.97,15,7,16,0.00
2012-12-30,26,13,0,17,7,-4,85,77,60,30.15,29.84,11,4,11,0.00
2012-12-31,26,14,0,12,2,-8,82,63,39,30.22,29.94,14,4,14,0.00
2013-1-1,19,6,-9,15,0,-14,84,76,53,30.23,29.98,16,5,16,0.00